Silver Star, Montana
Current Conditions -  °F | °C
As of 12:53 PM on Sunday 25 Jan 2015 (Local Time) from KBTM Reporting Station
Clear Clear  
Wind Chill: 50°   Ceiling: Unl
Heat Index: 50°   Visibility: 10mi
Dew Point: 30°   Wind: 5mph
Humidity: 46%   Direction: 330°NNW
Pressure: 30.24"   Gusts: NA
Location:  45.69°N, 112.28°W
Report Text: KBTM 251953Z AUTO 33004KT 10SM CLR 10/M01 A3024 RMK AO2 SLP237 T01001011
Loading
Personal Weather Stations






























Interactive Weather Map New forecast layout! Learn more

10-Day Weather Forecast

Advertisements
Track Severe Weather on mobile